sensor_id;sensor_type;location;lat;lon;timestamp;P1;durP1;ratioP1;P2;durP2;ratioP2
45356;SDS011;31092;51.924;21.448;2023-11-21T00:01:26;11.07;;;7.65;;
45356;SDS011;31092;51.924;21.448;2023-11-21T00:03:52;8.30;;;6.82;;
45356;SDS011;31092;51.924;21.448;2023-11-21T00:06:20;8.18;;;7.15;;
45356;SDS011;31092;51.924;21.448;2023-11-21T00:08:46;9.00;;;7.07;;
45356;SDS011;31092;51.924;21.448;2023-11-21T00:11:11;7.70;;;6.90;;
45356;SDS011;31092;51.924;21.448;2023-11-21T00:13:36;11.68;;;7.45;;
45356;SDS011;31092;51.924;21.448;2023-11-21T00:16:02;13.68;;;8.18;;
45356;SDS011;31092;51.924;21.448;2023-11-21T00:18:29;13.40;;;8.45;;
45356;SDS011;31092;51.924;21.448;2023-11-21T00:20:55;9.48;;;6.63;;
45356;SDS011;31092;51.924;21.448;2023-11-21T00:23:20;7.55;;;6.70;;
45356;SDS011;31092;51.924;21.448;2023-11-21T00:25:46;8.18;;;6.80;;
45356;SDS011;31092;51.924;21.448;2023-11-21T00:28:11;9.30;;;7.20;;
45356;SDS011;31092;51.924;21.448;2023-11-21T00:30:36;9.07;;;7.15;;
45356;SDS011;31092;51.924;21.448;2023-11-21T00:33:03;8.90;;;6.53;;
45356;SDS011;31092;51.924;21.448;2023-11-21T00:35:29;11.60;;;7.95;;
45356;SDS011;31092;51.924;21.448;2023-11-21T00:37:54;14.13;;;7.95;;
45356;SDS011;31092;51.924;21.448;2023-11-21T00:40:20;10.82;;;7.25;;
45356;SDS011;31092;51.924;21.448;2023-11-21T00:42:46;7.70;;;6.60;;
45356;SDS011;31092;51.924;21.448;2023-11-21T00:45:12;8.35;;;7.28;;
45356;SDS011;31092;51.924;21.448;2023-11-21T00:47:38;10.10;;;6.93;;
45356;SDS011;31092;51.924;21.448;2023-11-21T00:50:04;10.10;;;7.88;;
45356;SDS011;31092;51.924;21.448;2023-11-21T00:52:31;10.23;;;7.07;;
45356;SDS011;31092;51.924;21.448;2023-11-21T00:54:57;9.50;;;7.55;;
45356;SDS011;31092;51.924;21.448;2023-11-21T00:57:25;10.30;;;7.25;;
45356;SDS011;31092;51.924;21.448;2023-11-21T00:59:51;8.55;;;7.32;;
45356;SDS011;31092;51.924;21.448;2023-11-21T01:02:16;10.77;;;7.50;;
45356;SDS011;31092;51.924;21.448;2023-11-21T01:04:42;12.52;;;7.97;;
45356;SDS011;31092;51.924;21.448;2023-11-21T01:07:08;10.50;;;7.38;;
45356;SDS011;31092;51.924;21.448;2023-11-21T01:09:34;10.70;;;7.70;;
45356;SDS011;31092;51.924;21.448;2023-11-21T01:11:59;14.38;;;9.07;;
45356;SDS011;31092;51.924;21.448;2023-11-21T01:14:25;12.20;;;8.55;;
45356;SDS011;31092;51.924;21.448;2023-11-21T01:16:54;11.65;;;7.55;;
45356;SDS011;31092;51.924;21.448;2023-11-21T01:19:20;12.73;;;8.82;;
45356;SDS011;31092;51.924;21.448;2023-11-21T01:21:45;9.15;;;8.20;;
45356;SDS011;31092;51.924;21.448;2023-11-21T01:24:11;15.23;;;8.40;;
45356;SDS011;31092;51.924;21.448;2023-11-21T01:26:36;11.25;;;8.43;;
45356;SDS011;31092;51.924;21.448;2023-11-21T01:29:02;11.40;;;9.13;;
45356;SDS011;31092;51.924;21.448;2023-11-21T01:31:27;11.80;;;9.95;;
45356;SDS011;31092;51.924;21.448;2023-11-21T01:33:55;12.25;;;9.50;;
45356;SDS011;31092;51.924;21.448;2023-11-21T01:36:21;13.70;;;8.57;;
45356;SDS011;31092;51.924;21.448;2023-11-21T01:38:46;18.85;;;11.05;;
45356;SDS011;31092;51.924;21.448;2023-11-21T01:41:13;14.02;;;9.73;;
45356;SDS011;31092;51.924;21.448;2023-11-21T01:43:39;15.48;;;9.82;;
45356;SDS011;31092;51.924;21.448;2023-11-21T01:46:05;13.55;;;9.75;;
45356;SDS011;31092;51.924;21.448;2023-11-21T01:48:31;18.10;;;10.68;;
45356;SDS011;31092;51.924;21.448;2023-11-21T01:50:58;16.60;;;10.68;;
45356;SDS011;31092;51.924;21.448;2023-11-21T01:53:26;15.57;;;9.63;;
45356;SDS011;31092;51.924;21.448;2023-11-21T01:55:53;14.05;;;10.55;;
45356;SDS011;31092;51.924;21.448;2023-11-21T01:58:20;16.08;;;9.98;;
45356;SDS011;31092;51.924;21.448;2023-11-21T02:00:46;18.67;;;11.50;;
45356;SDS011;31092;51.924;21.448;2023-11-21T02:03:15;14.32;;;10.32;;
45356;SDS011;31092;51.924;21.448;2023-11-21T02:05:41;14.55;;;9.88;;
45356;SDS011;31092;51.924;21.448;2023-11-21T02:08:07;17.55;;;10.55;;
45356;SDS011;31092;51.924;21.448;2023-11-21T02:10:34;17.30;;;10.45;;
45356;SDS011;31092;51.924;21.448;2023-11-21T02:13:02;16.17;;;10.05;;
45356;SDS011;31092;51.924;21.448;2023-11-21T02:15:27;20.13;;;10.10;;
45356;SDS011;31092;51.924;21.448;2023-11-21T02:17:54;15.82;;;10.23;;
45356;SDS011;31092;51.924;21.448;2023-11-21T02:20:20;15.90;;;9.90;;
45356;SDS011;31092;51.924;21.448;2023-11-21T02:22:50;15.40;;;9.07;;
45356;SDS011;31092;51.924;21.448;2023-11-21T02:25:23;24.23;;;10.27;;
45356;SDS011;31092;51.924;21.448;2023-11-21T02:27:50;17.70;;;11.40;;
45356;SDS011;31092;51.924;21.448;2023-11-21T02:30:16;14.65;;;9.45;;
45356;SDS011;31092;51.924;21.448;2023-11-21T02:32:42;15.82;;;10.18;;
45356;SDS011;31092;51.924;21.448;2023-11-21T02:35:12;16.02;;;10.68;;
45356;SDS011;31092;51.924;21.448;2023-11-21T02:37:52;19.83;;;11.23;;
45356;SDS011;31092;51.924;21.448;2023-11-21T02:40:18;20.17;;;10.43;;
45356;SDS011;31092;51.924;21.448;2023-11-21T02:42:48;19.95;;;10.60;;
45356;SDS011;31092;51.924;21.448;2023-11-21T02:45:16;22.15;;;10.85;;
45356;SDS011;31092;51.924;21.448;2023-11-21T02:47:43;24.65;;;12.05;;
45356;SDS011;31092;51.924;21.448;2023-11-21T02:50:09;14.32;;;9.05;;
45356;SDS011;31092;51.924;21.448;2023-11-21T02:52:35;16.50;;;9.70;;
45356;SDS011;31092;51.924;21.448;2023-11-21T02:55:01;23.52;;;11.52;;
45356;SDS011;31092;51.924;21.448;2023-11-21T02:57:29;26.90;;;12.68;;
45356;SDS011;31092;51.924;21.448;2023-11-21T02:59:55;19.13;;;11.63;;
45356;SDS011;31092;51.924;21.448;2023-11-21T03:02:21;19.60;;;11.30;;
45356;SDS011;31092;51.924;21.448;2023-11-21T03:04:47;21.38;;;10.98;;
45356;SDS011;31092;51.924;21.448;2023-11-21T03:07:16;21.55;;;10.57;;
45356;SDS011;31092;51.924;21.448;2023-11-21T03:09:44;19.65;;;11.55;;
45356;SDS011;31092;51.924;21.448;2023-11-21T03:12:10;24.10;;;11.27;;
45356;SDS011;31092;51.924;21.448;2023-11-21T03:14:37;15.98;;;10.38;;
45356;SDS011;31092;51.924;21.448;2023-11-21T03:17:03;19.75;;;10.63;;
45356;SDS011;31092;51.924;21.448;2023-11-21T03:19:30;16.92;;;10.98;;
45356;SDS011;31092;51.924;21.448;2023-11-21T03:21:56;18.70;;;10.88;;
45356;SDS011;31092;51.924;21.448;2023-11-21T03:24:21;12.40;;;9.05;;
45356;SDS011;31092;51.924;21.448;2023-11-21T03:26:48;22.30;;;10.35;;
45356;SDS011;31092;51.924;21.448;2023-11-21T03:29:14;16.45;;;10.73;;
45356;SDS011;31092;51.924;21.448;2023-11-21T03:31:40;19.80;;;11.13;;
45356;SDS011;31092;51.924;21.448;2023-11-21T03:34:05;20.13;;;11.10;;
45356;SDS011;31092;51.924;21.448;2023-11-21T03:36:31;16.60;;;10.73;;
45356;SDS011;31092;51.924;21.448;2023-11-21T03:38:57;13.68;;;9.05;;
45356;SDS011;31092;51.924;21.448;2023-11-21T03:41:22;17.02;;;10.18;;
45356;SDS011;31092;51.924;21.448;2023-11-21T03:43:48;14.20;;;9.73;;
45356;SDS011;31092;51.924;21.448;2023-11-21T03:46:13;16.42;;;10.20;;
45356;SDS011;31092;51.924;21.448;2023-11-21T03:48:39;17.33;;;10.27;;
45356;SDS011;31092;51.924;21.448;2023-11-21T03:51:05;18.80;;;10.45;;
45356;SDS011;31092;51.924;21.448;2023-11-21T03:53:31;19.23;;;9.95;;
45356;SDS011;31092;51.924;21.448;2023-11-21T03:55:57;17.70;;;10.52;;
45356;SDS011;31092;51.924;21.448;2023-11-21T03:58:23;15.02;;;9.85;;
45356;SDS011;31092;51.924;21.448;2023-11-21T04:00:48;17.98;;;9.45;;
45356;SDS011;31092;51.924;21.448;2023-11-21T04:03:16;17.98;;;9.50;;
45356;SDS011;31092;51.924;21.448;2023-11-21T04:05:42;17.58;;;10.80;;
45356;SDS011;31092;51.924;21.448;2023-11-21T04:08:08;17.40;;;9.32;;
45356;SDS011;31092;51.924;21.448;2023-11-21T04:10:33;16.05;;;10.05;;
45356;SDS011;31092;51.924;21.448;2023-11-21T04:12:59;17.73;;;9.98;;
45356;SDS011;31092;51.924;21.448;2023-11-21T04:15:25;15.50;;;9.52;;
45356;SDS011;31092;51.924;21.448;2023-11-21T04:17:51;15.27;;;9.18;;
45356;SDS011;31092;51.924;21.448;2023-11-21T04:20:16;11.77;;;8.65;;
45356;SDS011;31092;51.924;21.448;2023-11-21T04:22:42;14.10;;;9.18;;
45356;SDS011;31092;51.924;21.448;2023-11-21T04:25:09;13.45;;;9.10;;
45356;SDS011;31092;51.924;21.448;2023-11-21T04:27:39;13.82;;;9.38;;
45356;SDS011;31092;51.924;21.448;2023-11-21T04:30:05;17.30;;;8.90;;
45356;SDS011;31092;51.924;21.448;2023-11-21T04:32:31;16.48;;;9.60;;
45356;SDS011;31092;51.924;21.448;2023-11-21T04:34:57;15.32;;;9.50;;
45356;SDS011;31092;51.924;21.448;2023-11-21T04:37:22;12.20;;;8.32;;
45356;SDS011;31092;51.924;21.448;2023-11-21T04:39:48;17.80;;;9.85;;
45356;SDS011;31092;51.924;21.448;2023-11-21T04:42:14;16.13;;;9.77;;
45356;SDS011;31092;51.924;21.448;2023-11-21T04:44:39;14.80;;;9.05;;
45356;SDS011;31092;51.924;21.448;2023-11-21T04:47:06;15.63;;;9.40;;
45356;SDS011;31092;51.924;21.448;2023-11-21T04:49:32;14.63;;;9.18;;
45356;SDS011;31092;51.924;21.448;2023-11-21T04:51:58;10.10;;;7.80;;
45356;SDS011;31092;51.924;21.448;2023-11-21T04:54:24;13.52;;;8.40;;
45356;SDS011;31092;51.924;21.448;2023-11-21T04:56:49;12.43;;;8.13;;
45356;SDS011;31092;51.924;21.448;2023-11-21T04:59:15;18.90;;;8.60;;
45356;SDS011;31092;51.924;21.448;2023-11-21T05:01:44;14.00;;;8.15;;
45356;SDS011;31092;51.924;21.448;2023-11-21T05:04:09;15.80;;;7.68;;
45356;SDS011;31092;51.924;21.448;2023-11-21T05:06:34;13.23;;;7.57;;
45356;SDS011;31092;51.924;21.448;2023-11-21T05:09:00;12.98;;;8.80;;
45356;SDS011;31092;51.924;21.448;2023-11-21T05:11:26;13.80;;;7.25;;
45356;SDS011;31092;51.924;21.448;2023-11-21T05:13:52;12.55;;;6.93;;
45356;SDS011;31092;51.924;21.448;2023-11-21T05:16:21;16.30;;;7.82;;
45356;SDS011;31092;51.924;21.448;2023-11-21T05:18:47;13.27;;;7.28;;
45356;SDS011;31092;51.924;21.448;2023-11-21T05:21:13;10.80;;;6.97;;
45356;SDS011;31092;51.924;21.448;2023-11-21T05:23:40;12.98;;;7.28;;
45356;SDS011;31092;51.924;21.448;2023-11-21T05:26:05;20.17;;;7.93;;
45356;SDS011;31092;51.924;21.448;2023-11-21T05:28:30;11.45;;;7.45;;
45356;SDS011;31092;51.924;21.448;2023-11-21T05:30:56;9.63;;;6.93;;
45356;SDS011;31092;51.924;21.448;2023-11-21T05:33:21;8.43;;;7.07;;
45356;SDS011;31092;51.924;21.448;2023-11-21T05:35:47;7.97;;;6.20;;
45356;SDS011;31092;51.924;21.448;2023-11-21T05:38:15;10.60;;;6.47;;
45356;SDS011;31092;51.924;21.448;2023-11-21T05:40:40;7.22;;;6.28;;
45356;SDS011;31092;51.924;21.448;2023-11-21T05:43:06;7.15;;;5.78;;
45356;SDS011;31092;51.924;21.448;2023-11-21T05:45:32;7.75;;;6.68;;
45356;SDS011;31092;51.924;21.448;2023-11-21T05:47:58;9.25;;;6.38;;
45356;SDS011;31092;51.924;21.448;2023-11-21T05:50:23;9.30;;;5.85;;
45356;SDS011;31092;51.924;21.448;2023-11-21T05:52:49;7.05;;;5.60;;
45356;SDS011;31092;51.924;21.448;2023-11-21T05:55:15;8.90;;;6.05;;
45356;SDS011;31092;51.924;21.448;2023-11-21T05:57:41;6.30;;;5.68;;
45356;SDS011;31092;51.924;21.448;2023-11-21T06:00:11;7.57;;;5.70;;
45356;SDS011;31092;51.924;21.448;2023-11-21T06:02:51;8.80;;;6.20;;
45356;SDS011;31092;51.924;21.448;2023-11-21T06:05:24;8.40;;;5.28;;
45356;SDS011;31092;51.924;21.448;2023-11-21T06:07:51;6.57;;;5.95;;
45356;SDS011;31092;51.924;21.448;2023-11-21T06:10:19;7.13;;;5.75;;
45356;SDS011;31092;51.924;21.448;2023-11-21T06:12:46;9.20;;;5.65;;
45356;SDS011;31092;51.924;21.448;2023-11-21T06:15:12;7.63;;;5.63;;
45356;SDS011;31092;51.924;21.448;2023-11-21T06:17:40;6.45;;;5.75;;
45356;SDS011;31092;51.924;21.448;2023-11-21T06:20:09;6.07;;;5.40;;
45356;SDS011;31092;51.924;21.448;2023-11-21T06:22:42;7.93;;;5.07;;
45356;SDS011;31092;51.924;21.448;2023-11-21T06:25:09;10.27;;;5.70;;
45356;SDS011;31092;51.924;21.448;2023-11-21T06:27:38;6.32;;;5.70;;
45356;SDS011;31092;51.924;21.448;2023-11-21T06:30:06;9.80;;;6.15;;
45356;SDS011;31092;51.924;21.448;2023-11-21T06:32:34;5.28;;;4.85;;
45356;SDS011;31092;51.924;21.448;2023-11-21T06:35:00;6.72;;;5.50;;
45356;SDS011;31092;51.924;21.448;2023-11-21T06:37:33;6.43;;;5.63;;
45356;SDS011;31092;51.924;21.448;2023-11-21T06:40:03;9.07;;;6.32;;
45356;SDS011;31092;51.924;21.448;2023-11-21T06:42:30;7.97;;;5.35;;
45356;SDS011;31092;51.924;21.448;2023-11-21T06:44:56;7.40;;;5.40;;
45356;SDS011;31092;51.924;21.448;2023-11-21T06:47:25;6.47;;;5.80;;
45356;SDS011;31092;51.924;21.448;2023-11-21T06:49:51;8.18;;;5.93;;
45356;SDS011;31092;51.924;21.448;2023-11-21T06:52:18;8.45;;;5.80;;
45356;SDS011;31092;51.924;21.448;2023-11-21T06:54:44;7.50;;;5.18;;
45356;SDS011;31092;51.924;21.448;2023-11-21T06:57:10;8.15;;;6.25;;
45356;SDS011;31092;51.924;21.448;2023-11-21T06:59:36;7.78;;;5.18;;
45356;SDS011;31092;51.924;21.448;2023-11-21T07:02:01;7.57;;;5.55;;
45356;SDS011;31092;51.924;21.448;2023-11-21T07:04:27;9.18;;;5.90;;
45356;SDS011;31092;51.924;21.448;2023-11-21T07:06:53;7.65;;;5.70;;
45356;SDS011;31092;51.924;21.448;2023-11-21T07:09:19;7.65;;;6.15;;
45356;SDS011;31092;51.924;21.448;2023-11-21T07:11:48;7.03;;;5.78;;
45356;SDS011;31092;51.924;21.448;2023-11-21T07:14:14;6.57;;;5.72;;
45356;SDS011;31092;51.924;21.448;2023-11-21T07:16:41;7.63;;;5.55;;
45356;SDS011;31092;51.924;21.448;2023-11-21T07:19:06;6.28;;;4.97;;
45356;SDS011;31092;51.924;21.448;2023-11-21T07:21:35;6.70;;;5.53;;
45356;SDS011;31092;51.924;21.448;2023-11-21T07:24:03;5.70;;;5.15;;
45356;SDS011;31092;51.924;21.448;2023-11-21T07:26:31;6.93;;;4.95;;
45356;SDS011;31092;51.924;21.448;2023-11-21T07:28:57;7.20;;;5.70;;
45356;SDS011;31092;51.924;21.448;2023-11-21T07:31:22;6.72;;;6.03;;
45356;SDS011;31092;51.924;21.448;2023-11-21T07:33:49;8.00;;;5.75;;
45356;SDS011;31092;51.924;21.448;2023-11-21T07:36:15;9.23;;;6.00;;
45356;SDS011;31092;51.924;21.448;2023-11-21T07:38:43;6.97;;;5.70;;
45356;SDS011;31092;51.924;21.448;2023-11-21T07:41:10;6.85;;;6.13;;
45356;SDS011;31092;51.924;21.448;2023-11-21T07:43:36;7.82;;;5.43;;
45356;SDS011;31092;51.924;21.448;2023-11-21T07:46:02;7.85;;;7.03;;
45356;SDS011;31092;51.924;21.448;2023-11-21T07:48:29;6.68;;;5.80;;
45356;SDS011;31092;51.924;21.448;2023-11-21T07:50:55;9.18;;;6.32;;
45356;SDS011;31092;51.924;21.448;2023-11-21T07:53:20;8.02;;;6.30;;
45356;SDS011;31092;51.924;21.448;2023-11-21T07:55:47;8.80;;;6.53;;
45356;SDS011;31092;51.924;21.448;2023-11-21T07:58:12;8.18;;;6.43;;
45356;SDS011;31092;51.924;21.448;2023-11-21T08:00:38;8.77;;;6.22;;
45356;SDS011;31092;51.924;21.448;2023-11-21T08:03:04;8.07;;;6.63;;
45356;SDS011;31092;51.924;21.448;2023-11-21T08:05:31;14.95;;;6.50;;
45356;SDS011;31092;51.924;21.448;2023-11-21T08:07:57;10.13;;;6.45;;
45356;SDS011;31092;51.924;21.448;2023-11-21T08:10:22;7.97;;;6.05;;
45356;SDS011;31092;51.924;21.448;2023-11-21T08:12:48;6.13;;;5.50;;
45356;SDS011;31092;51.924;21.448;2023-11-21T08:15:15;10.57;;;7.20;;
45356;SDS011;31092;51.924;21.448;2023-11-21T08:17:41;11.20;;;7.03;;
45356;SDS011;31092;51.924;21.448;2023-11-21T08:20:06;10.00;;;6.07;;
45356;SDS011;31092;51.924;21.448;2023-11-21T08:22:33;9.43;;;6.60;;
45356;SDS011;31092;51.924;21.448;2023-11-21T08:24:59;8.65;;;6.57;;
45356;SDS011;31092;51.924;21.448;2023-11-21T08:27:25;9.50;;;6.53;;
45356;SDS011;31092;51.924;21.448;2023-11-21T08:29:50;13.15;;;7.18;;
45356;SDS011;31092;51.924;21.448;2023-11-21T08:32:17;10.50;;;7.70;;
45356;SDS011;31092;51.924;21.448;2023-11-21T08:34:43;11.15;;;7.22;;
45356;SDS011;31092;51.924;21.448;2023-11-21T08:37:14;8.80;;;7.32;;
45356;SDS011;31092;51.924;21.448;2023-11-21T08:39:40;10.35;;;7.75;;
45356;SDS011;31092;51.924;21.448;2023-11-21T08:42:07;9.35;;;6.65;;
45356;SDS011;31092;51.924;21.448;2023-11-21T08:44:33;8.55;;;6.85;;
45356;SDS011;31092;51.924;21.448;2023-11-21T08:46:58;9.13;;;6.82;;
45356;SDS011;31092;51.924;21.448;2023-11-21T08:49:24;13.88;;;8.07;;
45356;SDS011;31092;51.924;21.448;2023-11-21T08:51:52;12.63;;;7.60;;
45356;SDS011;31092;51.924;21.448;2023-11-21T08:54:20;8.10;;;6.78;;
45356;SDS011;31092;51.924;21.448;2023-11-21T08:56:46;12.80;;;7.97;;
45356;SDS011;31092;51.924;21.448;2023-11-21T08:59:12;8.73;;;6.82;;
45356;SDS011;31092;51.924;21.448;2023-11-21T09:01:39;9.93;;;7.07;;
45356;SDS011;31092;51.924;21.448;2023-11-21T09:04:05;11.98;;;8.15;;
45356;SDS011;31092;51.924;21.448;2023-11-21T09:06:30;12.55;;;7.55;;
45356;SDS011;31092;51.924;21.448;2023-11-21T09:08:56;9.25;;;7.78;;
45356;SDS011;31092;51.924;21.448;2023-11-21T09:11:21;10.60;;;8.27;;
45356;SDS011;31092;51.924;21.448;2023-11-21T09:13:49;10.38;;;7.05;;
45356;SDS011;31092;51.924;21.448;2023-11-21T09:16:16;11.57;;;7.28;;
45356;SDS011;31092;51.924;21.448;2023-11-21T09:18:42;11.35;;;7.63;;
45356;SDS011;31092;51.924;21.448;2023-11-21T09:21:07;11.32;;;8.15;;
45356;SDS011;31092;51.924;21.448;2023-11-21T09:23:34;14.15;;;8.70;;
45356;SDS011;31092;51.924;21.448;2023-11-21T09:26:00;12.30;;;7.53;;
45356;SDS011;31092;51.924;21.448;2023-11-21T09:28:26;11.98;;;7.57;;
45356;SDS011;31092;51.924;21.448;2023-11-21T09:30:52;13.85;;;8.02;;
45356;SDS011;31092;51.924;21.448;2023-11-21T09:33:18;12.43;;;7.80;;
45356;SDS011;31092;51.924;21.448;2023-11-21T09:35:44;11.32;;;7.53;;
45356;SDS011;31092;51.924;21.448;2023-11-21T09:38:10;11.20;;;6.95;;
45356;SDS011;31092;51.924;21.448;2023-11-21T09:40:36;12.15;;;6.72;;
45356;SDS011;31092;51.924;21.448;2023-11-21T09:43:05;10.68;;;7.85;;
45356;SDS011;31092;51.924;21.448;2023-11-21T09:45:36;9.32;;;7.13;;
45356;SDS011;31092;51.924;21.448;2023-11-21T09:48:03;12.00;;;8.10;;
45356;SDS011;31092;51.924;21.448;2023-11-21T09:50:31;11.15;;;7.15;;
45356;SDS011;31092;51.924;21.448;2023-11-21T09:53:16;16.63;;;7.97;;
45356;SDS011;31092;51.924;21.448;2023-11-21T09:55:43;11.45;;;7.72;;
45356;SDS011;31092;51.924;21.448;2023-11-21T09:58:10;8.95;;;6.93;;
45356;SDS011;31092;51.924;21.448;2023-11-21T10:00:42;14.30;;;6.93;;
45356;SDS011;31092;51.924;21.448;2023-11-21T10:05:35;8.65;;;5.90;;
45356;SDS011;31092;51.924;21.448;2023-11-21T10:08:01;9.55;;;6.55;;
45356;SDS011;31092;51.924;21.448;2023-11-21T10:10:32;10.60;;;7.03;;
45356;SDS011;31092;51.924;21.448;2023-11-21T10:13:00;11.65;;;7.60;;
45356;SDS011;31092;51.924;21.448;2023-11-21T10:15:30;10.95;;;7.43;;
45356;SDS011;31092;51.924;21.448;2023-11-21T10:17:56;11.48;;;7.35;;
45356;SDS011;31092;51.924;21.448;2023-11-21T10:20:24;12.43;;;7.90;;
45356;SDS011;31092;51.924;21.448;2023-11-21T10:22:51;17.88;;;8.85;;
45356;SDS011;31092;51.924;21.448;2023-11-21T10:25:16;12.48;;;8.32;;
45356;SDS011;31092;51.924;21.448;2023-11-21T10:27:47;11.73;;;8.27;;
45356;SDS011;31092;51.924;21.448;2023-11-21T10:30:15;12.70;;;8.15;;
45356;SDS011;31092;51.924;21.448;2023-11-21T10:32:44;11.70;;;7.70;;
45356;SDS011;31092;51.924;21.448;2023-11-21T10:35:10;16.10;;;7.90;;
45356;SDS011;31092;51.924;21.448;2023-11-21T10:37:36;14.15;;;8.13;;
45356;SDS011;31092;51.924;21.448;2023-11-21T10:40:08;9.35;;;7.00;;
45356;SDS011;31092;51.924;21.448;2023-11-21T10:42:37;11.80;;;8.00;;
45356;SDS011;31092;51.924;21.448;2023-11-21T10:45:07;11.13;;;8.27;;
45356;SDS011;31092;51.924;21.448;2023-11-21T10:47:43;8.77;;;7.18;;
45356;SDS011;31092;51.924;21.448;2023-11-21T10:50:09;11.47;;;8.30;;
45356;SDS011;31092;51.924;21.448;2023-11-21T10:52:36;12.63;;;8.30;;
45356;SDS011;31092;51.924;21.448;2023-11-21T10:55:15;11.55;;;8.43;;
45356;SDS011;31092;51.924;21.448;2023-11-21T10:57:43;12.52;;;8.18;;
45356;SDS011;31092;51.924;21.448;2023-11-21T11:00:13;14.15;;;8.43;;
45356;SDS011;31092;51.924;21.448;2023-11-21T11:02:40;10.93;;;8.15;;
45356;SDS011;31092;51.924;21.448;2023-11-21T11:05:06;12.82;;;8.65;;
45356;SDS011;31092;51.924;21.448;2023-11-21T11:07:36;12.23;;;9.70;;
45356;SDS011;31092;51.924;21.448;2023-11-21T11:10:07;16.30;;;10.80;;
45356;SDS011;31092;51.924;21.448;2023-11-21T11:12:39;12.38;;;8.07;;
45356;SDS011;31092;51.924;21.448;2023-11-21T11:15:06;16.52;;;9.10;;
45356;SDS011;31092;51.924;21.448;2023-11-21T11:17:35;14.45;;;9.00;;
45356;SDS011;31092;51.924;21.448;2023-11-21T11:20:04;13.85;;;9.73;;
45356;SDS011;31092;51.924;21.448;2023-11-21T11:22:50;13.10;;;8.50;;
45356;SDS011;31092;51.924;21.448;2023-11-21T11:25:26;12.20;;;8.02;;
45356;SDS011;31092;51.924;21.448;2023-11-21T11:28:12;15.27;;;10.00;;
45356;SDS011;31092;51.924;21.448;2023-11-21T11:33:23;18.17;;;10.43;;
45356;SDS011;31092;51.924;21.448;2023-11-21T11:36:16;12.82;;;8.82;;
45356;SDS011;31092;51.924;21.448;2023-11-21T11:38:49;11.18;;;8.10;;
45356;SDS011;31092;51.924;21.448;2023-11-21T11:41:15;12.52;;;8.93;;
45356;SDS011;31092;51.924;21.448;2023-11-21T11:43:52;14.50;;;9.57;;
45356;SDS011;31092;51.924;21.448;2023-11-21T11:46:18;9.70;;;7.22;;
45356;SDS011;31092;51.924;21.448;2023-11-21T11:48:46;13.32;;;9.20;;
45356;SDS011;31092;51.924;21.448;2023-11-21T11:51:14;14.10;;;9.48;;
45356;SDS011;31092;51.924;21.448;2023-11-21T11:53:42;12.70;;;9.13;;
45356;SDS011;31092;51.924;21.448;2023-11-21T11:58:53;15.05;;;9.15;;
45356;SDS011;31092;51.924;21.448;2023-11-21T12:01:20;16.92;;;9.60;;
45356;SDS011;31092;51.924;21.448;2023-11-21T12:07:00;14.77;;;9.82;;
45356;SDS011;31092;51.924;21.448;2023-11-21T12:09:30;13.05;;;9.25;;
45356;SDS011;31092;51.924;21.448;2023-11-21T12:11:57;14.40;;;9.52;;
45356;SDS011;31092;51.924;21.448;2023-11-21T12:14:22;19.88;;;9.90;;
45356;SDS011;31092;51.924;21.448;2023-11-21T12:16:48;19.02;;;10.48;;
45356;SDS011;31092;51.924;21.448;2023-11-21T12:19:14;16.60;;;10.02;;
45356;SDS011;31092;51.924;21.448;2023-11-21T12:21:40;18.42;;;11.00;;
45356;SDS011;31092;51.924;21.448;2023-11-21T12:24:13;19.40;;;10.05;;
45356;SDS011;31092;51.924;21.448;2023-11-21T12:26:39;16.33;;;10.45;;
45356;SDS011;31092;51.924;21.448;2023-11-21T12:29:05;16.00;;;10.32;;
45356;SDS011;31092;51.924;21.448;2023-11-21T12:31:32;17.20;;;10.70;;
45356;SDS011;31092;51.924;21.448;2023-11-21T12:33:59;15.05;;;10.20;;
45356;SDS011;31092;51.924;21.448;2023-11-21T12:36:25;16.33;;;10.48;;
45356;SDS011;31092;51.924;21.448;2023-11-21T12:38:51;24.92;;;11.35;;
45356;SDS011;31092;51.924;21.448;2023-11-21T12:41:17;16.48;;;11.13;;
45356;SDS011;31092;51.924;21.448;2023-11-21T12:43:43;16.23;;;10.60;;
45356;SDS011;31092;51.924;21.448;2023-11-21T12:46:09;12.52;;;9.15;;
45356;SDS011;31092;51.924;21.448;2023-11-21T12:48:41;19.60;;;10.70;;
45356;SDS011;31092;51.924;21.448;2023-11-21T12:51:10;17.05;;;10.40;;
45356;SDS011;31092;51.924;21.448;2023-11-21T12:53:40;15.32;;;9.68;;
45356;SDS011;31092;51.924;21.448;2023-11-21T12:56:10;16.02;;;9.95;;
45356;SDS011;31092;51.924;21.448;2023-11-21T12:58:37;17.73;;;10.50;;
45356;SDS011;31092;51.924;21.448;2023-11-21T13:01:07;9.73;;;8.38;;
45356;SDS011;31092;51.924;21.448;2023-11-21T13:03:43;16.70;;;8.98;;
45356;SDS011;31092;51.924;21.448;2023-11-21T13:06:13;13.95;;;9.55;;
45356;SDS011;31092;51.924;21.448;2023-11-21T13:08:40;12.98;;;9.18;;
45356;SDS011;31092;51.924;21.448;2023-11-21T13:11:05;18.05;;;10.43;;
45356;SDS011;31092;51.924;21.448;2023-11-21T13:13:31;12.27;;;8.90;;
45356;SDS011;31092;51.924;21.448;2023-11-21T13:15:59;14.15;;;9.15;;
45356;SDS011;31092;51.924;21.448;2023-11-21T13:18:26;17.45;;;10.07;;
45356;SDS011;31092;51.924;21.448;2023-11-21T13:20:53;16.48;;;9.85;;
45356;SDS011;31092;51.924;21.448;2023-11-21T13:23:20;15.48;;;9.95;;
45356;SDS011;31092;51.924;21.448;2023-11-21T13:25:46;16.63;;;9.70;;
45356;SDS011;31092;51.924;21.448;2023-11-21T13:28:13;17.63;;;10.88;;
45356;SDS011;31092;51.924;21.448;2023-11-21T13:30:40;16.95;;;10.75;;
45356;SDS011;31092;51.924;21.448;2023-11-21T13:33:07;19.88;;;10.82;;
45356;SDS011;31092;51.924;21.448;2023-11-21T13:35:34;13.82;;;9.63;;
45356;SDS011;31092;51.924;21.448;2023-11-21T13:38:21;15.65;;;9.88;;
45356;SDS011;31092;51.924;21.448;2023-11-21T13:40:57;16.15;;;10.68;;
45356;SDS011;31092;51.924;21.448;2023-11-21T13:43:32;15.23;;;8.88;;
45356;SDS011;31092;51.924;21.448;2023-11-21T13:45:58;14.90;;;9.55;;
45356;SDS011;31092;51.924;21.448;2023-11-21T13:48:33;13.20;;;9.38;;
45356;SDS011;31092;51.924;21.448;2023-11-21T13:51:10;17.27;;;9.60;;
45356;SDS011;31092;51.924;21.448;2023-11-21T13:53:42;17.90;;;11.07;;
45356;SDS011;31092;51.924;21.448;2023-11-21T13:56:09;12.90;;;9.15;;
45356;SDS011;31092;51.924;21.448;2023-11-21T13:58:35;14.05;;;9.88;;
45356;SDS011;31092;51.924;21.448;2023-11-21T14:01:15;16.48;;;10.73;;
45356;SDS011;31092;51.924;21.448;2023-11-21T14:03:49;18.67;;;10.10;;
45356;SDS011;31092;51.924;21.448;2023-11-21T14:06:21;18.33;;;9.88;;
45356;SDS011;31092;51.924;21.448;2023-11-21T14:11:21;15.15;;;8.35;;
45356;SDS011;31092;51.924;21.448;2023-11-21T14:13:47;13.43;;;9.70;;
45356;SDS011;31092;51.924;21.448;2023-11-21T14:16:14;14.80;;;9.63;;
45356;SDS011;31092;51.924;21.448;2023-11-21T14:18:42;19.65;;;10.23;;
45356;SDS011;31092;51.924;21.448;2023-11-21T14:21:20;17.75;;;10.52;;
45356;SDS011;31092;51.924;21.448;2023-11-21T14:23:46;12.13;;;9.32;;
45356;SDS011;31092;51.924;21.448;2023-11-21T14:26:13;15.30;;;8.93;;
45356;SDS011;31092;51.924;21.448;2023-11-21T14:28:40;19.50;;;10.43;;
45356;SDS011;31092;51.924;21.448;2023-11-21T14:31:06;16.27;;;10.82;;
45356;SDS011;31092;51.924;21.448;2023-11-21T14:33:32;25.70;;;13.52;;
45356;SDS011;31092;51.924;21.448;2023-11-21T14:35:58;16.90;;;10.52;;
45356;SDS011;31092;51.924;21.448;2023-11-21T14:38:24;23.08;;;11.45;;